sensor_id;sensor_type;location;lat;lon;timestamp;P1;durP1;ratioP1;P2;durP2;ratioP2
69126;SDS011;56688;50.234;19.292;2023-06-10T00:02:00;14.40;;;12.90;;
69126;SDS011;56688;50.234;19.292;2023-06-10T00:04:27;14.30;;;12.80;;
69126;SDS011;56688;50.234;19.292;2023-06-10T00:06:54;14.10;;;12.60;;
69126;SDS011;56688;50.234;19.292;2023-06-10T00:09:21;16.70;;;12.50;;
69126;SDS011;56688;50.234;19.292;2023-06-10T00:11:49;15.10;;;12.90;;
69126;SDS011;56688;50.234;19.292;2023-06-10T00:14:16;14.20;;;12.70;;
69126;SDS011;56688;50.234;19.292;2023-06-10T00:16:43;13.60;;;12.10;;
69126;SDS011;56688;50.234;19.292;2023-06-10T00:19:11;15.10;;;13.60;;
69126;SDS011;56688;50.234;19.292;2023-06-10T00:21:40;15.50;;;13.40;;
69126;SDS011;56688;50.234;19.292;2023-06-10T00:24:07;16.50;;;14.60;;
69126;SDS011;56688;50.234;19.292;2023-06-10T00:26:40;14.50;;;12.90;;
69126;SDS011;56688;50.234;19.292;2023-06-10T00:29:09;14.60;;;13.10;;
69126;SDS011;56688;50.234;19.292;2023-06-10T00:31:37;14.50;;;13.00;;
69126;SDS011;56688;50.234;19.292;2023-06-10T00:34:06;14.60;;;12.40;;
69126;SDS011;56688;50.234;19.292;2023-06-10T00:36:33;14.70;;;12.10;;
69126;SDS011;56688;50.234;19.292;2023-06-10T00:39:02;14.10;;;12.60;;
69126;SDS011;56688;50.234;19.292;2023-06-10T00:41:31;14.70;;;12.90;;
69126;SDS011;56688;50.234;19.292;2023-06-10T00:44:00;17.90;;;14.50;;
69126;SDS011;56688;50.234;19.292;2023-06-10T00:46:27;15.40;;;13.80;;
69126;SDS011;56688;50.234;19.292;2023-06-10T00:48:55;15.30;;;13.00;;
69126;SDS011;56688;50.234;19.292;2023-06-10T00:51:22;18.80;;;14.00;;
69126;SDS011;56688;50.234;19.292;2023-06-10T00:53:49;14.70;;;12.90;;
69126;SDS011;56688;50.234;19.292;2023-06-10T00:56:16;14.20;;;12.50;;
69126;SDS011;56688;50.234;19.292;2023-06-10T00:58:43;14.50;;;12.20;;
69126;SDS011;56688;50.234;19.292;2023-06-10T01:01:11;14.80;;;13.30;;
69126;SDS011;56688;50.234;19.292;2023-06-10T01:03:39;16.20;;;14.00;;
69126;SDS011;56688;50.234;19.292;2023-06-10T01:06:09;16.30;;;14.30;;
69126;SDS011;56688;50.234;19.292;2023-06-10T01:08:47;15.40;;;13.80;;
69126;SDS011;56688;50.234;19.292;2023-06-10T01:11:23;14.20;;;12.70;;
69126;SDS011;56688;50.234;19.292;2023-06-10T01:13:54;14.40;;;12.80;;
69126;SDS011;56688;50.234;19.292;2023-06-10T01:16:22;15.20;;;13.70;;
69126;SDS011;56688;50.234;19.292;2023-06-10T01:18:50;15.50;;;13.90;;
69126;SDS011;56688;50.234;19.292;2023-06-10T01:21:20;16.10;;;14.20;;
69126;SDS011;56688;50.234;19.292;2023-06-10T01:23:52;16.90;;;14.30;;
69126;SDS011;56688;50.234;19.292;2023-06-10T01:26:20;16.00;;;14.40;;
69126;SDS011;56688;50.234;19.292;2023-06-10T01:31:41;15.30;;;13.70;;
69126;SDS011;56688;50.234;19.292;2023-06-10T01:34:17;17.10;;;13.10;;
69126;SDS011;56688;50.234;19.292;2023-06-10T01:36:46;16.80;;;12.90;;
69126;SDS011;56688;50.234;19.292;2023-06-10T01:39:16;15.80;;;12.90;;
69126;SDS011;56688;50.234;19.292;2023-06-10T01:41:47;13.60;;;11.80;;
69126;SDS011;56688;50.234;19.292;2023-06-10T01:44:19;15.70;;;13.10;;
69126;SDS011;56688;50.234;19.292;2023-06-10T01:46:46;17.00;;;12.60;;
69126;SDS011;56688;50.234;19.292;2023-06-10T01:49:13;14.50;;;13.00;;
69126;SDS011;56688;50.234;19.292;2023-06-10T01:51:43;14.70;;;13.10;;
69126;SDS011;56688;50.234;19.292;2023-06-10T01:54:09;14.30;;;12.70;;
69126;SDS011;56688;50.234;19.292;2023-06-10T01:56:36;14.40;;;12.40;;
69126;SDS011;56688;50.234;19.292;2023-06-10T01:59:03;15.20;;;12.70;;
69126;SDS011;56688;50.234;19.292;2023-06-10T02:01:31;15.40;;;12.70;;
69126;SDS011;56688;50.234;19.292;2023-06-10T02:03:59;14.00;;;12.30;;
69126;SDS011;56688;50.234;19.292;2023-06-10T02:06:26;14.50;;;13.00;;
69126;SDS011;56688;50.234;19.292;2023-06-10T02:08:53;14.20;;;12.80;;
69126;SDS011;56688;50.234;19.292;2023-06-10T02:11:20;15.70;;;13.60;;
69126;SDS011;56688;50.234;19.292;2023-06-10T02:13:47;17.90;;;14.40;;
69126;SDS011;56688;50.234;19.292;2023-06-10T02:16:14;17.90;;;14.10;;
69126;SDS011;56688;50.234;19.292;2023-06-10T02:18:43;15.70;;;14.10;;
69126;SDS011;56688;50.234;19.292;2023-06-10T02:21:10;21.90;;;13.20;;
69126;SDS011;56688;50.234;19.292;2023-06-10T02:23:37;15.20;;;12.60;;
69126;SDS011;56688;50.234;19.292;2023-06-10T02:26:04;15.00;;;12.80;;
69126;SDS011;56688;50.234;19.292;2023-06-10T02:28:32;14.50;;;12.80;;
69126;SDS011;56688;50.234;19.292;2023-06-10T02:30:59;15.20;;;13.50;;
69126;SDS011;56688;50.234;19.292;2023-06-10T02:33:27;16.10;;;14.40;;
69126;SDS011;56688;50.234;19.292;2023-06-10T02:35:55;22.00;;;14.50;;
69126;SDS011;56688;50.234;19.292;2023-06-10T02:38:23;19.60;;;14.40;;
69126;SDS011;56688;50.234;19.292;2023-06-10T02:40:50;16.40;;;14.00;;
69126;SDS011;56688;50.234;19.292;2023-06-10T02:43:16;16.70;;;14.00;;
69126;SDS011;56688;50.234;19.292;2023-06-10T02:45:43;15.40;;;13.80;;
69126;SDS011;56688;50.234;19.292;2023-06-10T02:48:11;18.60;;;14.70;;
69126;SDS011;56688;50.234;19.292;2023-06-10T02:50:38;14.80;;;13.30;;
69126;SDS011;56688;50.234;19.292;2023-06-10T02:53:19;18.20;;;15.00;;
69126;SDS011;56688;50.234;19.292;2023-06-10T02:55:50;19.50;;;15.70;;
69126;SDS011;56688;50.234;19.292;2023-06-10T02:58:17;18.20;;;15.80;;
69126;SDS011;56688;50.234;19.292;2023-06-10T03:00:44;18.10;;;15.20;;
69126;SDS011;56688;50.234;19.292;2023-06-10T03:03:11;16.80;;;15.00;;
69126;SDS011;56688;50.234;19.292;2023-06-10T03:05:47;16.20;;;14.30;;
69126;SDS011;56688;50.234;19.292;2023-06-10T03:08:15;16.40;;;14.20;;
69126;SDS011;56688;50.234;19.292;2023-06-10T03:10:43;15.80;;;14.10;;
69126;SDS011;56688;50.234;19.292;2023-06-10T03:13:12;16.30;;;14.10;;
69126;SDS011;56688;50.234;19.292;2023-06-10T03:15:38;15.60;;;14.00;;
69126;SDS011;56688;50.234;19.292;2023-06-10T03:18:09;16.00;;;14.30;;
69126;SDS011;56688;50.234;19.292;2023-06-10T03:20:37;17.10;;;15.40;;
69126;SDS011;56688;50.234;19.292;2023-06-10T03:23:06;17.40;;;14.60;;
69126;SDS011;56688;50.234;19.292;2023-06-10T03:25:34;16.80;;;14.80;;
69126;SDS011;56688;50.234;19.292;2023-06-10T03:28:01;21.30;;;13.40;;
69126;SDS011;56688;50.234;19.292;2023-06-10T03:30:28;14.70;;;13.20;;
69126;SDS011;56688;50.234;19.292;2023-06-10T03:32:55;14.10;;;12.70;;
69126;SDS011;56688;50.234;19.292;2023-06-10T03:35:23;14.00;;;12.20;;
69126;SDS011;56688;50.234;19.292;2023-06-10T03:37:50;16.20;;;13.40;;
69126;SDS011;56688;50.234;19.292;2023-06-10T03:40:17;17.90;;;14.60;;
69126;SDS011;56688;50.234;19.292;2023-06-10T03:42:45;18.20;;;14.00;;
69126;SDS011;56688;50.234;19.292;2023-06-10T03:45:14;17.50;;;13.50;;
69126;SDS011;56688;50.234;19.292;2023-06-10T03:47:41;14.20;;;12.70;;
69126;SDS011;56688;50.234;19.292;2023-06-10T03:50:10;14.50;;;12.20;;
69126;SDS011;56688;50.234;19.292;2023-06-10T03:52:38;20.30;;;12.70;;
69126;SDS011;56688;50.234;19.292;2023-06-10T03:55:06;18.40;;;14.20;;
69126;SDS011;56688;50.234;19.292;2023-06-10T03:57:34;18.20;;;14.20;;
69126;SDS011;56688;50.234;19.292;2023-06-10T04:00:01;15.80;;;13.80;;
69126;SDS011;56688;50.234;19.292;2023-06-10T04:02:40;18.00;;;13.40;;
69126;SDS011;56688;50.234;19.292;2023-06-10T04:05:17;14.00;;;12.60;;
69126;SDS011;56688;50.234;19.292;2023-06-10T04:07:47;15.40;;;11.80;;
69126;SDS011;56688;50.234;19.292;2023-06-10T04:10:15;14.80;;;11.10;;
69126;SDS011;56688;50.234;19.292;2023-06-10T04:12:42;12.70;;;11.20;;
69126;SDS011;56688;50.234;19.292;2023-06-10T04:15:09;14.00;;;10.80;;
69126;SDS011;56688;50.234;19.292;2023-06-10T04:17:37;13.20;;;11.10;;
69126;SDS011;56688;50.234;19.292;2023-06-10T04:20:04;12.70;;;11.00;;
69126;SDS011;56688;50.234;19.292;2023-06-10T04:22:35;11.30;;;10.10;;
69126;SDS011;56688;50.234;19.292;2023-06-10T04:25:03;11.80;;;10.60;;
69126;SDS011;56688;50.234;19.292;2023-06-10T04:27:31;11.80;;;10.00;;
69126;SDS011;56688;50.234;19.292;2023-06-10T04:29:58;11.40;;;10.30;;
69126;SDS011;56688;50.234;19.292;2023-06-10T04:32:24;12.00;;;10.50;;
69126;SDS011;56688;50.234;19.292;2023-06-10T04:34:53;13.00;;;10.70;;
69126;SDS011;56688;50.234;19.292;2023-06-10T04:37:19;14.50;;;11.20;;
69126;SDS011;56688;50.234;19.292;2023-06-10T04:39:46;15.30;;;11.60;;
69126;SDS011;56688;50.234;19.292;2023-06-10T04:42:13;16.80;;;11.30;;
69126;SDS011;56688;50.234;19.292;2023-06-10T04:44:41;11.40;;;9.80;;
69126;SDS011;56688;50.234;19.292;2023-06-10T04:47:08;10.20;;;9.20;;
69126;SDS011;56688;50.234;19.292;2023-06-10T04:49:35;11.80;;;8.40;;
69126;SDS011;56688;50.234;19.292;2023-06-10T04:52:02;11.60;;;9.20;;
69126;SDS011;56688;50.234;19.292;2023-06-10T04:54:34;12.60;;;10.10;;
69126;SDS011;56688;50.234;19.292;2023-06-10T04:57:01;12.90;;;9.50;;
69126;SDS011;56688;50.234;19.292;2023-06-10T04:59:28;11.80;;;8.70;;
69126;SDS011;56688;50.234;19.292;2023-06-10T05:01:56;13.60;;;8.20;;
69126;SDS011;56688;50.234;19.292;2023-06-10T05:04:23;13.40;;;8.00;;
69126;SDS011;56688;50.234;19.292;2023-06-10T05:06:50;11.90;;;8.10;;
69126;SDS011;56688;50.234;19.292;2023-06-10T05:09:17;9.70;;;7.10;;
69126;SDS011;56688;50.234;19.292;2023-06-10T05:11:44;11.10;;;7.60;;
69126;SDS011;56688;50.234;19.292;2023-06-10T05:14:11;11.30;;;7.60;;
69126;SDS011;56688;50.234;19.292;2023-06-10T05:16:38;10.60;;;7.70;;
69126;SDS011;56688;50.234;19.292;2023-06-10T05:19:05;10.60;;;7.80;;
69126;SDS011;56688;50.234;19.292;2023-06-10T05:21:34;10.90;;;7.40;;
69126;SDS011;56688;50.234;19.292;2023-06-10T05:24:01;10.70;;;6.90;;
69126;SDS011;56688;50.234;19.292;2023-06-10T05:26:28;11.00;;;7.30;;
69126;SDS011;56688;50.234;19.292;2023-06-10T05:28:58;8.00;;;6.70;;
69126;SDS011;56688;50.234;19.292;2023-06-10T05:31:25;8.90;;;7.00;;
69126;SDS011;56688;50.234;19.292;2023-06-10T05:33:52;9.10;;;6.60;;
69126;SDS011;56688;50.234;19.292;2023-06-10T05:36:19;9.20;;;7.10;;
69126;SDS011;56688;50.234;19.292;2023-06-10T05:38:46;9.70;;;6.90;;
69126;SDS011;56688;50.234;19.292;2023-06-10T05:41:13;12.30;;;6.90;;
69126;SDS011;56688;50.234;19.292;2023-06-10T05:43:40;13.30;;;6.80;;
69126;SDS011;56688;50.234;19.292;2023-06-10T05:46:07;8.90;;;7.20;;
69126;SDS011;56688;50.234;19.292;2023-06-10T05:48:34;10.00;;;7.20;;
69126;SDS011;56688;50.234;19.292;2023-06-10T05:51:01;11.30;;;7.40;;
69126;SDS011;56688;50.234;19.292;2023-06-10T05:53:28;12.00;;;7.40;;
69126;SDS011;56688;50.234;19.292;2023-06-10T05:55:55;11.40;;;7.10;;
69126;SDS011;56688;50.234;19.292;2023-06-10T05:58:24;8.30;;;5.50;;
69126;SDS011;56688;50.234;19.292;2023-06-10T06:00:51;10.00;;;7.00;;
69126;SDS011;56688;50.234;19.292;2023-06-10T06:03:19;10.20;;;7.00;;
69126;SDS011;56688;50.234;19.292;2023-06-10T06:05:46;8.40;;;6.70;;
69126;SDS011;56688;50.234;19.292;2023-06-10T06:08:13;9.00;;;7.00;;
69126;SDS011;56688;50.234;19.292;2023-06-10T06:10:40;12.40;;;8.00;;
69126;SDS011;56688;50.234;19.292;2023-06-10T06:13:07;13.30;;;7.10;;
69126;SDS011;56688;50.234;19.292;2023-06-10T06:15:33;8.70;;;6.50;;
69126;SDS011;56688;50.234;19.292;2023-06-10T06:18:00;10.10;;;7.10;;
69126;SDS011;56688;50.234;19.292;2023-06-10T06:20:27;9.30;;;7.00;;
69126;SDS011;56688;50.234;19.292;2023-06-10T06:22:54;9.50;;;6.80;;
69126;SDS011;56688;50.234;19.292;2023-06-10T06:25:21;13.00;;;8.30;;
69126;SDS011;56688;50.234;19.292;2023-06-10T06:27:48;12.10;;;7.70;;
69126;SDS011;56688;50.234;19.292;2023-06-10T06:30:15;12.40;;;8.30;;
69126;SDS011;56688;50.234;19.292;2023-06-10T06:32:42;12.70;;;8.60;;
69126;SDS011;56688;50.234;19.292;2023-06-10T06:35:09;9.30;;;7.40;;
69126;SDS011;56688;50.234;19.292;2023-06-10T06:37:37;9.60;;;7.20;;
69126;SDS011;56688;50.234;19.292;2023-06-10T06:40:14;12.70;;;7.20;;
69126;SDS011;56688;50.234;19.292;2023-06-10T06:42:41;8.20;;;6.70;;
69126;SDS011;56688;50.234;19.292;2023-06-10T06:45:14;7.30;;;6.50;;
69126;SDS011;56688;50.234;19.292;2023-06-10T06:47:41;8.40;;;6.50;;
69126;SDS011;56688;50.234;19.292;2023-06-10T06:50:09;10.30;;;6.30;;
69126;SDS011;56688;50.234;19.292;2023-06-10T06:52:36;8.90;;;6.30;;
69126;SDS011;56688;50.234;19.292;2023-06-10T06:55:03;8.80;;;5.70;;
69126;SDS011;56688;50.234;19.292;2023-06-10T06:57:31;8.90;;;5.90;;
69126;SDS011;56688;50.234;19.292;2023-06-10T06:59:58;8.70;;;6.60;;
69126;SDS011;56688;50.234;19.292;2023-06-10T07:02:25;12.40;;;6.70;;
69126;SDS011;56688;50.234;19.292;2023-06-10T07:04:52;8.20;;;6.90;;
69126;SDS011;56688;50.234;19.292;2023-06-10T07:07:22;6.80;;;6.20;;
69126;SDS011;56688;50.234;19.292;2023-06-10T07:09:48;8.70;;;7.20;;
69126;SDS011;56688;50.234;19.292;2023-06-10T07:12:15;9.10;;;6.50;;
69126;SDS011;56688;50.234;19.292;2023-06-10T07:14:44;7.70;;;6.70;;
69126;SDS011;56688;50.234;19.292;2023-06-10T07:17:11;8.10;;;6.40;;
69126;SDS011;56688;50.234;19.292;2023-06-10T07:19:38;11.70;;;7.20;;
69126;SDS011;56688;50.234;19.292;2023-06-10T07:22:05;7.60;;;6.30;;
69126;SDS011;56688;50.234;19.292;2023-06-10T07:24:32;7.40;;;6.20;;
69126;SDS011;56688;50.234;19.292;2023-06-10T07:26:59;7.50;;;5.90;;
69126;SDS011;56688;50.234;19.292;2023-06-10T07:29:25;8.50;;;6.40;;
69126;SDS011;56688;50.234;19.292;2023-06-10T07:31:52;8.50;;;6.50;;
69126;SDS011;56688;50.234;19.292;2023-06-10T07:34:19;6.60;;;5.90;;
69126;SDS011;56688;50.234;19.292;2023-06-10T07:36:46;7.60;;;6.00;;
69126;SDS011;56688;50.234;19.292;2023-06-10T07:39:13;5.30;;;4.60;;
69126;SDS011;56688;50.234;19.292;2023-06-10T07:41:40;8.80;;;5.90;;
69126;SDS011;56688;50.234;19.292;2023-06-10T07:44:07;7.50;;;6.10;;
69126;SDS011;56688;50.234;19.292;2023-06-10T07:46:34;7.80;;;5.50;;
69126;SDS011;56688;50.234;19.292;2023-06-10T07:49:01;8.70;;;6.10;;
69126;SDS011;56688;50.234;19.292;2023-06-10T07:51:28;6.00;;;5.40;;
69126;SDS011;56688;50.234;19.292;2023-06-10T07:53:55;10.40;;;5.40;;
69126;SDS011;56688;50.234;19.292;2023-06-10T07:56:22;5.80;;;5.20;;
69126;SDS011;56688;50.234;19.292;2023-06-10T07:58:49;6.20;;;4.70;;
69126;SDS011;56688;50.234;19.292;2023-06-10T08:01:16;8.10;;;5.50;;
69126;SDS011;56688;50.234;19.292;2023-06-10T08:03:43;7.30;;;5.10;;
69126;SDS011;56688;50.234;19.292;2023-06-10T08:06:11;6.90;;;4.90;;
69126;SDS011;56688;50.234;19.292;2023-06-10T08:08:38;9.10;;;5.40;;
69126;SDS011;56688;50.234;19.292;2023-06-10T08:11:10;6.80;;;5.20;;
69126;SDS011;56688;50.234;19.292;2023-06-10T08:13:38;6.50;;;4.90;;
69126;SDS011;56688;50.234;19.292;2023-06-10T08:16:06;7.30;;;4.70;;
69126;SDS011;56688;50.234;19.292;2023-06-10T08:18:34;6.80;;;4.70;;
69126;SDS011;56688;50.234;19.292;2023-06-10T08:21:00;6.20;;;5.00;;
69126;SDS011;56688;50.234;19.292;2023-06-10T08:23:27;7.80;;;4.90;;
69126;SDS011;56688;50.234;19.292;2023-06-10T08:25:54;6.80;;;5.00;;
69126;SDS011;56688;50.234;19.292;2023-06-10T08:28:21;7.80;;;4.50;;
69126;SDS011;56688;50.234;19.292;2023-06-10T08:30:48;6.40;;;4.50;;
69126;SDS011;56688;50.234;19.292;2023-06-10T08:33:15;4.90;;;4.40;;
69126;SDS011;56688;50.234;19.292;2023-06-10T08:35:42;4.70;;;4.10;;
69126;SDS011;56688;50.234;19.292;2023-06-10T08:38:09;9.40;;;4.50;;
69126;SDS011;56688;50.234;19.292;2023-06-10T08:40:36;4.70;;;4.20;;
69126;SDS011;56688;50.234;19.292;2023-06-10T08:45:30;7.10;;;4.60;;
69126;SDS011;56688;50.234;19.292;2023-06-10T08:47:58;5.30;;;4.40;;
69126;SDS011;56688;50.234;19.292;2023-06-10T08:50:26;5.20;;;4.30;;
69126;SDS011;56688;50.234;19.292;2023-06-10T08:52:57;7.40;;;4.50;;
69126;SDS011;56688;50.234;19.292;2023-06-10T08:55:27;4.60;;;4.10;;
69126;SDS011;56688;50.234;19.292;2023-06-10T09:00:26;6.10;;;4.40;;
69126;SDS011;56688;50.234;19.292;2023-06-10T09:02:55;7.20;;;4.40;;
69126;SDS011;56688;50.234;19.292;2023-06-10T09:05:23;7.50;;;4.70;;
69126;SDS011;56688;50.234;19.292;2023-06-10T09:07:51;4.80;;;4.40;;
69126;SDS011;56688;50.234;19.292;2023-06-10T09:10:19;8.90;;;4.60;;
69126;SDS011;56688;50.234;19.292;2023-06-10T09:12:46;6.30;;;4.50;;
69126;SDS011;56688;50.234;19.292;2023-06-10T09:15:13;5.40;;;4.30;;
69126;SDS011;56688;50.234;19.292;2023-06-10T09:17:41;5.10;;;4.50;;
69126;SDS011;56688;50.234;19.292;2023-06-10T09:20:08;9.20;;;4.80;;
69126;SDS011;56688;50.234;19.292;2023-06-10T09:22:36;7.70;;;5.40;;
69126;SDS011;56688;50.234;19.292;2023-06-10T09:25:05;5.10;;;4.20;;
69126;SDS011;56688;50.234;19.292;2023-06-10T09:27:33;6.10;;;4.40;;
69126;SDS011;56688;50.234;19.292;2023-06-10T09:30:22;4.40;;;3.80;;
69126;SDS011;56688;50.234;19.292;2023-06-10T09:32:53;6.80;;;4.00;;
69126;SDS011;56688;50.234;19.292;2023-06-10T09:35:24;4.10;;;3.60;;
69126;SDS011;56688;50.234;19.292;2023-06-10T09:37:52;5.90;;;3.50;;
69126;SDS011;56688;50.234;19.292;2023-06-10T09:40:23;4.20;;;3.30;;
69126;SDS011;56688;50.234;19.292;2023-06-10T09:42:53;7.20;;;3.90;;
69126;SDS011;56688;50.234;19.292;2023-06-10T09:45:22;3.80;;;3.10;;
69126;SDS011;56688;50.234;19.292;2023-06-10T09:47:52;4.90;;;3.50;;
69126;SDS011;56688;50.234;19.292;2023-06-10T09:50:20;5.00;;;3.60;;
69126;SDS011;56688;50.234;19.292;2023-06-10T09:52:47;3.60;;;3.30;;
69126;SDS011;56688;50.234;19.292;2023-06-10T09:55:15;5.10;;;3.70;;
69126;SDS011;56688;50.234;19.292;2023-06-10T09:57:42;5.80;;;3.50;;
69126;SDS011;56688;50.234;19.292;2023-06-10T10:00:14;5.50;;;3.40;;
69126;SDS011;56688;50.234;19.292;2023-06-10T10:02:44;3.20;;;2.90;;
69126;SDS011;56688;50.234;19.292;2023-06-10T10:05:14;4.00;;;3.20;;
69126;SDS011;56688;50.234;19.292;2023-06-10T10:07:42;4.30;;;3.30;;
69126;SDS011;56688;50.234;19.292;2023-06-10T10:10:10;4.70;;;3.50;;
69126;SDS011;56688;50.234;19.292;2023-06-10T10:12:39;3.90;;;3.50;;
69126;SDS011;56688;50.234;19.292;2023-06-10T10:15:07;3.60;;;3.10;;
69126;SDS011;56688;50.234;19.292;2023-06-10T10:17:40;4.60;;;3.20;;
69126;SDS011;56688;50.234;19.292;2023-06-10T10:20:12;5.30;;;3.20;;
69126;SDS011;56688;50.234;19.292;2023-06-10T10:22:43;6.00;;;3.30;;
69126;SDS011;56688;50.234;19.292;2023-06-10T10:25:15;3.60;;;3.00;;
69126;SDS011;56688;50.234;19.292;2023-06-10T10:27:51;5.20;;;3.10;;
69126;SDS011;56688;50.234;19.292;2023-06-10T10:30:25;3.80;;;3.10;;
69126;SDS011;56688;50.234;19.292;2023-06-10T10:32:58;4.60;;;3.60;;
69126;SDS011;56688;50.234;19.292;2023-06-10T10:35:35;4.30;;;3.10;;
69126;SDS011;56688;50.234;19.292;2023-06-10T10:38:03;5.70;;;3.50;;
69126;SDS011;56688;50.234;19.292;2023-06-10T10:40:31;4.20;;;2.90;;
69126;SDS011;56688;50.234;19.292;2023-06-10T10:42:59;3.40;;;3.10;;
69126;SDS011;56688;50.234;19.292;2023-06-10T10:45:29;7.90;;;3.50;;
69126;SDS011;56688;50.234;19.292;2023-06-10T10:47:56;3.70;;;3.30;;
69126;SDS011;56688;50.234;19.292;2023-06-10T10:50:24;5.00;;;3.20;;
69126;SDS011;56688;50.234;19.292;2023-06-10T10:53:01;4.70;;;2.90;;
69126;SDS011;56688;50.234;19.292;2023-06-10T10:55:29;3.30;;;2.80;;
69126;SDS011;56688;50.234;19.292;2023-06-10T11:02:59;4.50;;;2.40;;
69126;SDS011;56688;50.234;19.292;2023-06-10T11:05:40;3.00;;;2.40;;
69126;SDS011;56688;50.234;19.292;2023-06-10T11:08:11;5.50;;;2.40;;
69126;SDS011;56688;50.234;19.292;2023-06-10T11:10:39;2.80;;;2.50;;
69126;SDS011;56688;50.234;19.292;2023-06-10T11:13:09;3.80;;;3.00;;
69126;SDS011;56688;50.234;19.292;2023-06-10T11:15:43;6.50;;;3.20;;
69126;SDS011;56688;50.234;19.292;2023-06-10T11:33:57;5.30;;;3.20;;
69126;SDS011;56688;50.234;19.292;2023-06-10T11:36:32;5.30;;;2.90;;
69126;SDS011;56688;50.234;19.292;2023-06-10T11:39:04;2.80;;;2.50;;
69126;SDS011;56688;50.234;19.292;2023-06-10T11:41:32;3.20;;;2.50;;
69126;SDS011;56688;50.234;19.292;2023-06-10T11:44:01;5.60;;;2.90;;
69126;SDS011;56688;50.234;19.292;2023-06-10T11:46:30;3.10;;;2.60;;
69126;SDS011;56688;50.234;19.292;2023-06-10T11:48:57;4.30;;;2.70;;
69126;SDS011;56688;50.234;19.292;2023-06-10T11:51:26;3.40;;;2.80;;
69126;SDS011;56688;50.234;19.292;2023-06-10T11:53:54;2.90;;;2.60;;
69126;SDS011;56688;50.234;19.292;2023-06-10T11:56:22;3.60;;;3.00;;
69126;SDS011;56688;50.234;19.292;2023-06-10T11:58:52;3.20;;;2.90;;
69126;SDS011;56688;50.234;19.292;2023-06-10T12:01:21;3.30;;;2.70;;
69126;SDS011;56688;50.234;19.292;2023-06-10T12:03:57;3.00;;;2.80;;
69126;SDS011;56688;50.234;19.292;2023-06-10T12:06:25;3.40;;;2.70;;
69126;SDS011;56688;50.234;19.292;2023-06-10T12:08:53;2.40;;;2.20;;
69126;SDS011;56688;50.234;19.292;2023-06-10T12:11:24;3.20;;;2.50;;
69126;SDS011;56688;50.234;19.292;2023-06-10T12:13:50;3.50;;;2.40;;
69126;SDS011;56688;50.234;19.292;2023-06-10T12:16:17;4.90;;;2.60;;
69126;SDS011;56688;50.234;19.292;2023-06-10T12:18:46;3.90;;;2.80;;
69126;SDS011;56688;50.234;19.292;2023-06-10T12:21:15;4.80;;;2.90;;
69126;SDS011;56688;50.234;19.292;2023-06-10T12:26:38;3.70;;;2.60;;
69126;SDS011;56688;50.234;19.292;2023-06-10T12:37:06;3.20;;;2.50;;
69126;SDS011;56688;50.234;19.292;2023-06-10T12:39:40;3.80;;;2.80;;
69126;SDS011;56688;50.234;19.292;2023-06-10T12:42:08;4.40;;;2.40;;
69126;SDS011;56688;50.234;19.292;2023-06-10T12:44:39;2.80;;;2.60;;
69126;SDS011;56688;50.234;19.292;2023-06-10T12:47:08;2.90;;;2.40;;
69126;SDS011;56688;50.234;19.292;2023-06-10T12:49:36;3.70;;;2.70;;
69126;SDS011;56688;50.234;19.292;2023-06-10T12:52:03;3.60;;;2.60;;
69126;SDS011;56688;50.234;19.292;2023-06-10T12:54:31;4.70;;;2.60;;
69126;SDS011;56688;50.234;19.292;2023-06-10T12:56:58;3.00;;;2.40;;
69126;SDS011;56688;50.234;19.292;2023-06-10T12:59:26;3.60;;;2.80;;
69126;SDS011;56688;50.234;19.292;2023-06-10T13:01:54;4.40;;;2.80;;
69126;SDS011;56688;50.234;19.292;2023-06-10T13:04:21;3.10;;;2.70;;
69126;SDS011;56688;50.234;19.292;2023-06-10T13:06:49;3.10;;;2.80;;
69126;SDS011;56688;50.234;19.292;2023-06-10T13:09:16;5.50;;;3.00;;
69126;SDS011;56688;50.234;19.292;2023-06-10T13:11:43;3.70;;;2.90;;
69126;SDS011;56688;50.234;19.292;2023-06-10T13:14:10;4.60;;;3.10;;
69126;SDS011;56688;50.234;19.292;2023-06-10T13:16:37;5.50;;;2.80;;
69126;SDS011;56688;50.234;19.292;2023-06-10T13:19:05;3.90;;;2.60;;
69126;SDS011;56688;50.234;19.292;2023-06-10T13:21:32;4.70;;;3.00;;
69126;SDS011;56688;50.234;19.292;2023-06-10T13:24:00;3.80;;;2.80;;
69126;SDS011;56688;50.234;19.292;2023-06-10T13:26:27;5.00;;;3.10;;
69126;SDS011;56688;50.234;19.292;2023-06-10T13:28:54;3.10;;;2.70;;
69126;SDS011;56688;50.234;19.292;2023-06-10T13:31:21;3.20;;;2.90;;
69126;SDS011;56688;50.234;19.292;2023-06-10T13:33:48;3.80;;;2.80;;
69126;SDS011;56688;50.234;19.292;2023-06-10T13:36:15;5.30;;;2.80;;
69126;SDS011;56688;50.234;19.292;2023-06-10T13:38:42;3.10;;;2.80;;
69126;SDS011;56688;50.234;19.292;2023-06-10T13:41:09;4.30;;;2.80;;
69126;SDS011;56688;50.234;19.292;2023-06-10T13:43:36;3.70;;;3.10;;
69126;SDS011;56688;50.234;19.292;2023-06-10T13:46:03;5.30;;;3.20;;
69126;SDS011;56688;50.234;19.292;2023-06-10T13:48:30;3.60;;;3.20;;
69126;SDS011;56688;50.234;19.292;2023-06-10T13:50:57;4.80;;;3.00;;
69126;SDS011;56688;50.234;19.292;2023-06-10T13:53:24;4.30;;;3.00;;
69126;SDS011;56688;50.234;19.292;2023-06-10T13:55:51;5.10;;;3.10;;
69126;SDS011;56688;50.234;19.292;2023-06-10T13:58:18;4.00;;;3.00;;
69126;SDS011;56688;50.234;19.292;2023-06-10T14:00:44;4.10;;;2.80;;
69126;SDS011;56688;50.234;19.292;2023-06-10T14:03:12;6.90;;;3.90;;
69126;SDS011;56688;50.234;19.292;2023-06-10T14:05:39;3.50;;;3.20;;
69126;SDS011;56688;50.234;19.292;2023-06-10T14:08:06;4.60;;;3.10;;
69126;SDS011;56688;50.234;19.292;2023-06-10T14:10:33;3.60;;;3.30;;
69126;SDS011;56688;50.234;19.292;2023-06-10T14:13:00;4.60;;;3.40;;
69126;SDS011;56688;50.234;19.292;2023-06-10T14:15:27;3.80;;;3.50;;
69126;SDS011;56688;50.234;19.292;2023-06-10T14:17:54;3.60;;;3.30;;
69126;SDS011;56688;50.234;19.292;2023-06-10T14:20:21;4.20;;;3.40;;
69126;SDS011;56688;50.234;19.292;2023-06-10T14:22:48;3.20;;;2.90;;
69126;SDS011;56688;50.234;19.292;2023-06-10T14:25:15;5.30;;;3.20;;
69126;SDS011;56688;50.234;19.292;2023-06-10T14:27:42;5.00;;;3.40;;
69126;SDS011;56688;50.234;19.292;2023-06-10T14:30:09;5.00;;;3.60;;
69126;SDS011;56688;50.234;19.292;2023-06-10T14:32:36;7.40;;;3.30;;
69126;SDS011;56688;50.234;19.292;2023-06-10T14:35:04;4.70;;;3.60;;
69126;SDS011;56688;50.234;19.292;2023-06-10T14:37:31;4.60;;;3.60;;
69126;SDS011;56688;50.234;19.292;2023-06-10T14:39:57;4.60;;;3.80;;
69126;SDS011;56688;50.234;19.292;2023-06-10T14:42:24;4.70;;;3.20;;
69126;SDS011;56688;50.234;19.292;2023-06-10T14:44:51;4.40;;;3.40;;
69126;SDS011;56688;50.234;19.292;2023-06-10T14:47:18;5.60;;;3.80;;
69126;SDS011;56688;50.234;19.292;2023-06-10T14:49:45;4.70;;;3.40;;
69126;SDS011;56688;50.234;19.292;2023-06-10T14:52:12;6.10;;;3.90;;
69126;SDS011;56688;50.234;19.292;2023-06-10T14:54:38;5.80;;;4.00;;
69126;SDS011;56688;50.234;19.292;2023-06-10T14:57:05;4.50;;;3.80;;
69126;SDS011;56688;50.234;19.292;2023-06-10T14:59:33;4.20;;;3.50;;
69126;SDS011;56688;50.234;19.292;2023-06-10T15:02:01;5.70;;;4.10;;
69126;SDS011;56688;50.234;19.292;2023-06-10T15:04:28;5.90;;;3.60;;
69126;SDS011;56688;50.234;19.292;2023-06-10T15:06:55;4.30;;;3.90;;
69126;SDS011;56688;50.234;19.292;2023-06-10T15:09:22;6.60;;;3.60;;
69126;SDS011;56688;50.234;19.292;2023-06-10T15:11:49;6.50;;;3.80;;